sensor_id;sensor_type;location;lat;lon;timestamp;P1;durP1;ratioP1;P2;durP2;ratioP2
4857;SDS011;58975;51.978;8.472;2024-02-16T00:03:04;1.48;;;1.10;;
4857;SDS011;58975;51.978;8.472;2024-02-16T00:08:01;3.85;;;1.40;;
4857;SDS011;58975;51.978;8.472;2024-02-16T00:12:59;3.90;;;1.08;;
4857;SDS011;58975;51.978;8.472;2024-02-16T00:17:55;4.68;;;1.55;;
4857;SDS011;58975;51.978;8.472;2024-02-16T00:22:52;4.90;;;1.42;;
4857;SDS011;58975;51.978;8.472;2024-02-16T00:27:48;5.38;;;1.60;;
4857;SDS011;58975;51.978;8.472;2024-02-16T00:32:45;4.40;;;1.15;;
4857;SDS011;58975;51.978;8.472;2024-02-16T00:37:41;6.50;;;1.23;;
4857;SDS011;58975;51.978;8.472;2024-02-16T00:42:38;3.17;;;1.35;;
4857;SDS011;58975;51.978;8.472;2024-02-16T00:47:35;2.65;;;1.20;;
4857;SDS011;58975;51.978;8.472;2024-02-16T00:52:31;2.63;;;1.30;;
4857;SDS011;58975;51.978;8.472;2024-02-16T00:57:28;1.55;;;1.10;;
4857;SDS011;58975;51.978;8.472;2024-02-16T01:02:24;5.13;;;0.98;;
4857;SDS011;58975;51.978;8.472;2024-02-16T01:07:25;3.05;;;1.20;;
4857;SDS011;58975;51.978;8.472;2024-02-16T01:12:21;1.80;;;1.30;;
4857;SDS011;58975;51.978;8.472;2024-02-16T01:17:20;3.35;;;1.20;;
4857;SDS011;58975;51.978;8.472;2024-02-16T01:22:16;4.93;;;0.98;;
4857;SDS011;58975;51.978;8.472;2024-02-16T01:27:14;4.95;;;1.33;;
4857;SDS011;58975;51.978;8.472;2024-02-16T01:32:12;3.92;;;1.40;;
4857;SDS011;58975;51.978;8.472;2024-02-16T01:37:10;2.83;;;1.37;;
4857;SDS011;58975;51.978;8.472;2024-02-16T01:42:06;3.67;;;1.30;;
4857;SDS011;58975;51.978;8.472;2024-02-16T01:47:03;2.53;;;1.30;;
4857;SDS011;58975;51.978;8.472;2024-02-16T01:52:00;6.25;;;1.38;;
4857;SDS011;58975;51.978;8.472;2024-02-16T01:56:57;1.67;;;1.40;;
4857;SDS011;58975;51.978;8.472;2024-02-16T02:01:53;1.85;;;1.10;;
4857;SDS011;58975;51.978;8.472;2024-02-16T02:06:50;3.50;;;1.58;;
4857;SDS011;58975;51.978;8.472;2024-02-16T02:11:46;2.60;;;1.42;;
4857;SDS011;58975;51.978;8.472;2024-02-16T02:16:43;1.70;;;1.20;;
4857;SDS011;58975;51.978;8.472;2024-02-16T02:21:50;4.53;;;1.48;;
4857;SDS011;58975;51.978;8.472;2024-02-16T02:26:47;2.15;;;1.50;;
4857;SDS011;58975;51.978;8.472;2024-02-16T02:31:43;2.38;;;1.50;;
4857;SDS011;58975;51.978;8.472;2024-02-16T02:36:40;6.55;;;1.27;;
4857;SDS011;58975;51.978;8.472;2024-02-16T02:41:37;3.95;;;1.52;;
4857;SDS011;58975;51.978;8.472;2024-02-16T02:46:33;3.63;;;1.23;;
4857;SDS011;58975;51.978;8.472;2024-02-16T02:51:30;2.67;;;1.35;;
4857;SDS011;58975;51.978;8.472;2024-02-16T02:56:27;4.00;;;1.63;;
4857;SDS011;58975;51.978;8.472;2024-02-16T03:01:23;3.70;;;1.45;;
4857;SDS011;58975;51.978;8.472;2024-02-16T03:06:20;4.28;;;1.30;;
4857;SDS011;58975;51.978;8.472;2024-02-16T03:11:17;2.17;;;1.00;;
4857;SDS011;58975;51.978;8.472;2024-02-16T03:16:13;3.80;;;1.55;;
4857;SDS011;58975;51.978;8.472;2024-02-16T03:21:12;2.55;;;1.38;;
4857;SDS011;58975;51.978;8.472;2024-02-16T03:26:13;3.92;;;1.05;;
4857;SDS011;58975;51.978;8.472;2024-02-16T03:31:14;4.22;;;2.35;;
4857;SDS011;58975;51.978;8.472;2024-02-16T03:36:18;6.38;;;1.30;;
4857;SDS011;58975;51.978;8.472;2024-02-16T03:41:19;4.50;;;1.20;;
4857;SDS011;58975;51.978;8.472;2024-02-16T03:46:17;3.83;;;1.70;;
4857;SDS011;58975;51.978;8.472;2024-02-16T03:51:13;2.95;;;1.33;;
4857;SDS011;58975;51.978;8.472;2024-02-16T03:56:10;4.28;;;1.30;;
4857;SDS011;58975;51.978;8.472;2024-02-16T04:01:08;9.93;;;1.65;;
4857;SDS011;58975;51.978;8.472;2024-02-16T04:06:04;3.70;;;1.25;;
4857;SDS011;58975;51.978;8.472;2024-02-16T04:11:01;1.77;;;1.33;;
4857;SDS011;58975;51.978;8.472;2024-02-16T04:15:59;2.90;;;1.48;;
4857;SDS011;58975;51.978;8.472;2024-02-16T04:20:55;5.38;;;1.23;;
4857;SDS011;58975;51.978;8.472;2024-02-16T04:25:52;2.65;;;2.13;;
4857;SDS011;58975;51.978;8.472;2024-02-16T04:30:49;5.75;;;1.58;;
4857;SDS011;58975;51.978;8.472;2024-02-16T04:35:45;2.72;;;1.35;;
4857;SDS011;58975;51.978;8.472;2024-02-16T04:40:45;3.33;;;1.40;;
4857;SDS011;58975;51.978;8.472;2024-02-16T04:45:42;1.67;;;1.40;;
4857;SDS011;58975;51.978;8.472;2024-02-16T04:50:39;4.32;;;1.50;;
4857;SDS011;58975;51.978;8.472;2024-02-16T04:55:36;4.50;;;1.10;;
4857;SDS011;58975;51.978;8.472;2024-02-16T05:00:32;4.53;;;1.27;;
4857;SDS011;58975;51.978;8.472;2024-02-16T05:05:29;3.17;;;1.15;;
4857;SDS011;58975;51.978;8.472;2024-02-16T05:10:26;2.40;;;1.30;;
4857;SDS011;58975;51.978;8.472;2024-02-16T05:15:23;1.58;;;1.13;;
4857;SDS011;58975;51.978;8.472;2024-02-16T05:20:19;2.67;;;1.25;;
4857;SDS011;58975;51.978;8.472;2024-02-16T05:25:16;3.50;;;1.67;;
4857;SDS011;58975;51.978;8.472;2024-02-16T05:30:16;4.30;;;1.00;;
4857;SDS011;58975;51.978;8.472;2024-02-16T05:35:13;3.55;;;1.15;;
4857;SDS011;58975;51.978;8.472;2024-02-16T05:40:13;5.60;;;1.58;;
4857;SDS011;58975;51.978;8.472;2024-02-16T05:45:18;1.73;;;1.38;;
4857;SDS011;58975;51.978;8.472;2024-02-16T05:50:14;7.78;;;1.75;;
4857;SDS011;58975;51.978;8.472;2024-02-16T05:55:12;2.90;;;1.60;;
4857;SDS011;58975;51.978;8.472;2024-02-16T06:00:09;3.73;;;1.17;;
4857;SDS011;58975;51.978;8.472;2024-02-16T06:05:07;2.83;;;1.27;;
4857;SDS011;58975;51.978;8.472;2024-02-16T06:10:03;5.20;;;1.50;;
4857;SDS011;58975;51.978;8.472;2024-02-16T06:15:04;2.42;;;1.38;;
4857;SDS011;58975;51.978;8.472;2024-02-16T06:24:59;8.48;;;1.75;;
4857;SDS011;58975;51.978;8.472;2024-02-16T06:29:56;3.45;;;1.52;;
4857;SDS011;58975;51.978;8.472;2024-02-16T06:34:53;3.40;;;1.60;;
4857;SDS011;58975;51.978;8.472;2024-02-16T06:39:49;4.80;;;1.95;;
4857;SDS011;58975;51.978;8.472;2024-02-16T06:44:46;5.88;;;1.90;;
4857;SDS011;58975;51.978;8.472;2024-02-16T06:49:42;2.10;;;1.48;;
4857;SDS011;58975;51.978;8.472;2024-02-16T06:54:39;3.67;;;1.60;;
4857;SDS011;58975;51.978;8.472;2024-02-16T06:59:35;8.35;;;1.85;;
4857;SDS011;58975;51.978;8.472;2024-02-16T07:04:31;4.78;;;1.67;;
4857;SDS011;58975;51.978;8.472;2024-02-16T07:09:28;5.97;;;1.60;;
4857;SDS011;58975;51.978;8.472;2024-02-16T07:14:25;3.08;;;1.60;;
4857;SDS011;58975;51.978;8.472;2024-02-16T07:19:22;5.28;;;2.08;;
4857;SDS011;58975;51.978;8.472;2024-02-16T07:24:18;3.80;;;1.60;;
4857;SDS011;58975;51.978;8.472;2024-02-16T07:29:15;6.03;;;2.80;;
4857;SDS011;58975;51.978;8.472;2024-02-16T07:34:13;4.40;;;1.85;;
4857;SDS011;58975;51.978;8.472;2024-02-16T07:39:09;3.90;;;1.95;;
4857;SDS011;58975;51.978;8.472;2024-02-16T07:44:08;2.88;;;1.65;;
4857;SDS011;58975;51.978;8.472;2024-02-16T07:49:04;4.20;;;1.67;;
4857;SDS011;58975;51.978;8.472;2024-02-16T07:54:01;2.22;;;1.45;;
4857;SDS011;58975;51.978;8.472;2024-02-16T07:58:57;4.07;;;1.60;;
4857;SDS011;58975;51.978;8.472;2024-02-16T08:03:54;2.60;;;1.42;;
4857;SDS011;58975;51.978;8.472;2024-02-16T08:08:50;4.45;;;1.80;;
4857;SDS011;58975;51.978;8.472;2024-02-16T08:13:47;3.00;;;1.73;;
4857;SDS011;58975;51.978;8.472;2024-02-16T08:18:43;3.40;;;1.48;;
4857;SDS011;58975;51.978;8.472;2024-02-16T08:28:37;7.38;;;1.85;;
4857;SDS011;58975;51.978;8.472;2024-02-16T08:33:35;7.22;;;1.58;;
4857;SDS011;58975;51.978;8.472;2024-02-16T08:38:33;2.67;;;1.20;;
4857;SDS011;58975;51.978;8.472;2024-02-16T08:43:30;6.47;;;1.95;;
4857;SDS011;58975;51.978;8.472;2024-02-16T08:48:26;4.28;;;1.48;;
4857;SDS011;58975;51.978;8.472;2024-02-16T08:53:23;6.72;;;1.80;;
4857;SDS011;58975;51.978;8.472;2024-02-16T08:58:19;2.20;;;1.38;;
4857;SDS011;58975;51.978;8.472;2024-02-16T09:03:15;3.30;;;1.52;;
4857;SDS011;58975;51.978;8.472;2024-02-16T09:08:13;2.10;;;1.43;;
4857;SDS011;58975;51.978;8.472;2024-02-16T09:13:09;2.40;;;1.50;;
4857;SDS011;58975;51.978;8.472;2024-02-16T09:18:05;5.68;;;1.83;;
4857;SDS011;58975;51.978;8.472;2024-02-16T09:23:02;6.07;;;1.88;;
4857;SDS011;58975;51.978;8.472;2024-02-16T09:27:59;1.53;;;1.10;;
4857;SDS011;58975;51.978;8.472;2024-02-16T09:32:56;3.38;;;1.25;;
4857;SDS011;58975;51.978;8.472;2024-02-16T09:37:52;9.30;;;1.73;;
4857;SDS011;58975;51.978;8.472;2024-02-16T09:42:49;4.47;;;1.58;;
4857;SDS011;58975;51.978;8.472;2024-02-16T09:47:46;8.02;;;2.03;;
4857;SDS011;58975;51.978;8.472;2024-02-16T09:52:58;6.05;;;1.90;;
4857;SDS011;58975;51.978;8.472;2024-02-16T09:57:59;5.20;;;1.43;;
4857;SDS011;58975;51.978;8.472;2024-02-16T10:02:56;5.18;;;1.70;;
4857;SDS011;58975;51.978;8.472;2024-02-16T10:07:53;2.97;;;1.60;;
4857;SDS011;58975;51.978;8.472;2024-02-16T10:12:49;5.10;;;2.25;;
4857;SDS011;58975;51.978;8.472;2024-02-16T10:17:56;3.65;;;1.30;;
4857;SDS011;58975;51.978;8.472;2024-02-16T10:28:02;4.20;;;2.10;;
4857;SDS011;58975;51.978;8.472;2024-02-16T10:33:02;3.35;;;1.48;;
4857;SDS011;58975;51.978;8.472;2024-02-16T10:38:00;6.78;;;2.00;;
4857;SDS011;58975;51.978;8.472;2024-02-16T10:43:03;3.65;;;1.77;;
4857;SDS011;58975;51.978;8.472;2024-02-16T10:48:01;4.80;;;1.80;;
4857;SDS011;58975;51.978;8.472;2024-02-16T10:57:59;5.78;;;2.05;;
4857;SDS011;58975;51.978;8.472;2024-02-16T11:02:57;3.33;;;1.35;;
4857;SDS011;58975;51.978;8.472;2024-02-16T11:08:02;4.65;;;2.42;;
4857;SDS011;58975;51.978;8.472;2024-02-16T11:13:01;3.33;;;1.60;;
4857;SDS011;58975;51.978;8.472;2024-02-16T11:18:03;3.20;;;1.80;;
4857;SDS011;58975;51.978;8.472;2024-02-16T11:23:08;6.25;;;2.03;;
4857;SDS011;58975;51.978;8.472;2024-02-16T11:28:05;5.40;;;2.25;;
4857;SDS011;58975;51.978;8.472;2024-02-16T11:33:01;5.22;;;2.00;;
4857;SDS011;58975;51.978;8.472;2024-02-16T11:37:58;5.55;;;2.25;;
4857;SDS011;58975;51.978;8.472;2024-02-16T11:42:58;6.85;;;2.20;;
4857;SDS011;58975;51.978;8.472;2024-02-16T11:48:05;2.65;;;2.00;;
4857;SDS011;58975;51.978;8.472;2024-02-16T11:53:03;2.65;;;1.77;;
4857;SDS011;58975;51.978;8.472;2024-02-16T11:58:00;5.70;;;1.73;;
4857;SDS011;58975;51.978;8.472;2024-02-16T12:03:00;9.77;;;2.20;;
4857;SDS011;58975;51.978;8.472;2024-02-16T12:07:57;8.27;;;1.92;;
4857;SDS011;58975;51.978;8.472;2024-02-16T12:12:54;10.45;;;2.05;;
4857;SDS011;58975;51.978;8.472;2024-02-16T12:17:58;6.60;;;2.05;;
4857;SDS011;58975;51.978;8.472;2024-02-16T12:22:56;5.97;;;1.98;;
4857;SDS011;58975;51.978;8.472;2024-02-16T12:27:52;5.53;;;2.42;;
4857;SDS011;58975;51.978;8.472;2024-02-16T12:32:49;10.48;;;2.17;;
4857;SDS011;58975;51.978;8.472;2024-02-16T12:37:46;6.90;;;2.38;;
4857;SDS011;58975;51.978;8.472;2024-02-16T12:42:43;3.85;;;1.52;;
4857;SDS011;58975;51.978;8.472;2024-02-16T12:47:43;8.90;;;1.90;;
4857;SDS011;58975;51.978;8.472;2024-02-16T12:52:41;7.57;;;2.45;;
4857;SDS011;58975;51.978;8.472;2024-02-16T12:57:49;7.85;;;2.00;;
4857;SDS011;58975;51.978;8.472;2024-02-16T13:07:44;7.22;;;2.80;;
4857;SDS011;58975;51.978;8.472;2024-02-16T13:12:40;10.55;;;3.38;;
4857;SDS011;58975;51.978;8.472;2024-02-16T13:17:39;9.63;;;2.80;;
4857;SDS011;58975;51.978;8.472;2024-02-16T13:22:36;8.45;;;3.15;;
4857;SDS011;58975;51.978;8.472;2024-02-16T13:27:33;6.95;;;3.20;;
4857;SDS011;58975;51.978;8.472;2024-02-16T13:32:30;8.35;;;3.45;;
4857;SDS011;58975;51.978;8.472;2024-02-16T13:37:27;12.07;;;4.00;;
4857;SDS011;58975;51.978;8.472;2024-02-16T13:42:23;11.15;;;4.85;;
4857;SDS011;58975;51.978;8.472;2024-02-16T13:47:20;15.32;;;4.60;;
4857;SDS011;58975;51.978;8.472;2024-02-16T13:52:19;10.52;;;5.00;;
4857;SDS011;58975;51.978;8.472;2024-02-16T13:57:15;8.43;;;5.38;;
4857;SDS011;58975;51.978;8.472;2024-02-16T14:02:12;17.02;;;6.20;;
4857;SDS011;58975;51.978;8.472;2024-02-16T14:07:09;9.88;;;7.00;;
4857;SDS011;58975;51.978;8.472;2024-02-16T14:12:06;17.33;;;7.50;;
4857;SDS011;58975;51.978;8.472;2024-02-16T14:17:02;12.30;;;7.80;;
4857;SDS011;58975;51.978;8.472;2024-02-16T14:21:59;16.98;;;9.25;;
4857;SDS011;58975;51.978;8.472;2024-02-16T14:26:56;17.17;;;7.93;;
4857;SDS011;58975;51.978;8.472;2024-02-16T14:31:52;16.00;;;8.85;;
4857;SDS011;58975;51.978;8.472;2024-02-16T14:36:49;18.58;;;8.38;;
4857;SDS011;58975;51.978;8.472;2024-02-16T14:41:45;17.00;;;8.20;;
4857;SDS011;58975;51.978;8.472;2024-02-16T14:46:41;13.07;;;8.05;;
4857;SDS011;58975;51.978;8.472;2024-02-16T14:51:41;10.05;;;7.40;;
4857;SDS011;58975;51.978;8.472;2024-02-16T14:56:38;20.92;;;9.00;;
4857;SDS011;58975;51.978;8.472;2024-02-16T15:01:36;17.27;;;9.93;;
4857;SDS011;58975;51.978;8.472;2024-02-16T15:06:33;16.88;;;9.90;;
4857;SDS011;58975;51.978;8.472;2024-02-16T15:11:31;19.13;;;11.25;;
4857;SDS011;58975;51.978;8.472;2024-02-16T15:16:28;18.65;;;12.65;;
4857;SDS011;58975;51.978;8.472;2024-02-16T15:21:24;22.83;;;12.85;;
4857;SDS011;58975;51.978;8.472;2024-02-16T15:26:21;28.17;;;13.65;;
4857;SDS011;58975;51.978;8.472;2024-02-16T15:31:18;23.40;;;14.75;;
4857;SDS011;58975;51.978;8.472;2024-02-16T15:36:14;20.23;;;14.02;;
4857;SDS011;58975;51.978;8.472;2024-02-16T15:41:11;28.90;;;15.35;;
4857;SDS011;58975;51.978;8.472;2024-02-16T15:46:07;28.98;;;14.15;;
4857;SDS011;58975;51.978;8.472;2024-02-16T15:51:03;27.23;;;13.70;;
4857;SDS011;58975;51.978;8.472;2024-02-16T15:56:03;19.17;;;12.32;;
4857;SDS011;58975;51.978;8.472;2024-02-16T16:01:00;23.67;;;12.32;;
4857;SDS011;58975;51.978;8.472;2024-02-16T16:05:57;20.45;;;12.15;;
4857;SDS011;58975;51.978;8.472;2024-02-16T16:10:54;20.17;;;10.38;;
4857;SDS011;58975;51.978;8.472;2024-02-16T16:15:52;16.77;;;10.35;;
4857;SDS011;58975;51.978;8.472;2024-02-16T16:20:48;26.02;;;9.52;;
4857;SDS011;58975;51.978;8.472;2024-02-16T16:25:45;13.55;;;9.55;;
4857;SDS011;58975;51.978;8.472;2024-02-16T16:30:41;13.70;;;9.27;;
4857;SDS011;58975;51.978;8.472;2024-02-16T16:35:37;12.43;;;9.10;;
4857;SDS011;58975;51.978;8.472;2024-02-16T16:40:34;18.52;;;9.68;;
4857;SDS011;58975;51.978;8.472;2024-02-16T16:45:31;17.38;;;9.27;;
4857;SDS011;58975;51.978;8.472;2024-02-16T16:50:28;14.10;;;9.02;;
4857;SDS011;58975;51.978;8.472;2024-02-16T16:55:24;11.98;;;8.27;;
4857;SDS011;58975;51.978;8.472;2024-02-16T17:00:21;11.57;;;8.35;;
4857;SDS011;58975;51.978;8.472;2024-02-16T17:05:18;12.50;;;9.23;;
4857;SDS011;58975;51.978;8.472;2024-02-16T17:10:15;14.85;;;9.43;;
4857;SDS011;58975;51.978;8.472;2024-02-16T17:15:15;18.25;;;9.25;;
4857;SDS011;58975;51.978;8.472;2024-02-16T17:20:15;15.07;;;9.68;;
4857;SDS011;58975;51.978;8.472;2024-02-16T17:25:11;13.52;;;8.60;;
4857;SDS011;58975;51.978;8.472;2024-02-16T17:30:08;17.45;;;9.75;;
4857;SDS011;58975;51.978;8.472;2024-02-16T17:35:05;19.48;;;10.95;;
4857;SDS011;58975;51.978;8.472;2024-02-16T17:40:02;15.40;;;9.18;;
4857;SDS011;58975;51.978;8.472;2024-02-16T17:45:00;13.30;;;8.63;;
4857;SDS011;58975;51.978;8.472;2024-02-16T17:49:57;15.75;;;10.43;;
4857;SDS011;58975;51.978;8.472;2024-02-16T17:54:54;11.90;;;8.57;;
4857;SDS011;58975;51.978;8.472;2024-02-16T17:59:50;10.77;;;7.15;;
4857;SDS011;58975;51.978;8.472;2024-02-16T18:04:48;11.02;;;6.95;;
4857;SDS011;58975;51.978;8.472;2024-02-16T18:09:45;10.20;;;7.03;;
4857;SDS011;58975;51.978;8.472;2024-02-16T18:14:42;9.13;;;5.93;;
4857;SDS011;58975;51.978;8.472;2024-02-16T18:19:39;9.82;;;7.07;;
4857;SDS011;58975;51.978;8.472;2024-02-16T18:24:36;9.88;;;6.20;;
4857;SDS011;58975;51.978;8.472;2024-02-16T18:29:33;6.40;;;5.63;;
4857;SDS011;58975;51.978;8.472;2024-02-16T18:34:30;8.35;;;5.65;;
4857;SDS011;58975;51.978;8.472;2024-02-16T18:39:27;8.67;;;5.90;;
4857;SDS011;58975;51.978;8.472;2024-02-16T18:44:23;6.90;;;4.68;;
4857;SDS011;58975;51.978;8.472;2024-02-16T18:49:20;5.85;;;4.93;;
4857;SDS011;58975;51.978;8.472;2024-02-16T18:54:17;9.38;;;5.35;;
4857;SDS011;58975;51.978;8.472;2024-02-16T18:59:13;8.70;;;5.25;;
4857;SDS011;58975;51.978;8.472;2024-02-16T19:04:10;7.32;;;4.90;;
4857;SDS011;58975;51.978;8.472;2024-02-16T19:09:06;6.45;;;5.13;;
4857;SDS011;58975;51.978;8.472;2024-02-16T19:14:05;6.72;;;4.90;;
4857;SDS011;58975;51.978;8.472;2024-02-16T19:19:02;5.15;;;4.60;;
4857;SDS011;58975;51.978;8.472;2024-02-16T19:23:59;7.03;;;4.80;;
4857;SDS011;58975;51.978;8.472;2024-02-16T19:28:55;5.28;;;4.55;;
4857;SDS011;58975;51.978;8.472;2024-02-16T19:33:52;5.18;;;4.28;;
4857;SDS011;58975;51.978;8.472;2024-02-16T19:38:49;6.97;;;5.25;;
4857;SDS011;58975;51.978;8.472;2024-02-16T19:43:45;7.03;;;5.53;;
4857;SDS011;58975;51.978;8.472;2024-02-16T19:48:42;7.63;;;5.90;;
4857;SDS011;58975;51.978;8.472;2024-02-16T19:53:39;9.65;;;6.07;;
4857;SDS011;58975;51.978;8.472;2024-02-16T19:58:35;7.82;;;6.88;;
4857;SDS011;58975;51.978;8.472;2024-02-16T20:03:32;10.18;;;6.63;;
4857;SDS011;58975;51.978;8.472;2024-02-16T20:08:30;9.15;;;6.72;;
4857;SDS011;58975;51.978;8.472;2024-02-16T20:13:26;10.00;;;6.88;;
4857;SDS011;58975;51.978;8.472;2024-02-16T20:18:25;8.10;;;6.40;;
4857;SDS011;58975;51.978;8.472;2024-02-16T20:23:25;9.48;;;7.38;;
4857;SDS011;58975;51.978;8.472;2024-02-16T20:28:21;11.98;;;8.13;;
4857;SDS011;58975;51.978;8.472;2024-02-16T20:33:18;11.13;;;8.50;;
4857;SDS011;58975;51.978;8.472;2024-02-16T20:38:15;10.35;;;8.30;;
4857;SDS011;58975;51.978;8.472;2024-02-16T20:43:11;11.90;;;8.10;;
4857;SDS011;58975;51.978;8.472;2024-02-16T20:48:08;11.38;;;8.82;;
4857;SDS011;58975;51.978;8.472;2024-02-16T20:53:05;14.00;;;8.02;;
4857;SDS011;58975;51.978;8.472;2024-02-16T20:58:01;12.68;;;8.20;;
4857;SDS011;58975;51.978;8.472;2024-02-16T21:07:56;12.57;;;8.13;;
4857;SDS011;58975;51.978;8.472;2024-02-16T21:12:53;11.35;;;7.25;;
4857;SDS011;58975;51.978;8.472;2024-02-16T21:17:50;14.20;;;8.18;;
4857;SDS011;58975;51.978;8.472;2024-02-16T21:22:46;13.13;;;8.30;;
4857;SDS011;58975;51.978;8.472;2024-02-16T21:27:43;15.55;;;9.25;;
4857;SDS011;58975;51.978;8.472;2024-02-16T21:32:39;12.98;;;8.77;;
4857;SDS011;58975;51.978;8.472;2024-02-16T21:37:36;14.60;;;10.13;;
4857;SDS011;58975;51.978;8.472;2024-02-16T21:42:33;17.90;;;10.35;;
4857;SDS011;58975;51.978;8.472;2024-02-16T21:47:29;20.70;;;10.98;;
4857;SDS011;58975;51.978;8.472;2024-02-16T21:52:26;17.17;;;10.77;;
4857;SDS011;58975;51.978;8.472;2024-02-16T21:57:24;19.77;;;12.60;;
4857;SDS011;58975;51.978;8.472;2024-02-16T22:02:20;16.27;;;10.85;;
4857;SDS011;58975;51.978;8.472;2024-02-16T22:07:17;17.55;;;11.45;;
4857;SDS011;58975;51.978;8.472;2024-02-16T22:12:14;18.47;;;11.87;;
4857;SDS011;58975;51.978;8.472;2024-02-16T22:17:11;22.50;;;12.43;;
4857;SDS011;58975;51.978;8.472;2024-02-16T22:22:07;18.95;;;12.00;;
4857;SDS011;58975;51.978;8.472;2024-02-16T22:27:04;20.08;;;12.80;;
4857;SDS011;58975;51.978;8.472;2024-02-16T22:32:01;18.40;;;12.25;;
4857;SDS011;58975;51.978;8.472;2024-02-16T22:37:12;22.17;;;13.70;;
4857;SDS011;58975;51.978;8.472;2024-02-16T22:42:08;19.48;;;12.45;;
4857;SDS011;58975;51.978;8.472;2024-02-16T22:47:05;20.65;;;12.10;;
4857;SDS011;58975;51.978;8.472;2024-02-16T22:52:02;20.10;;;12.10;;
4857;SDS011;58975;51.978;8.472;2024-02-16T22:56:59;20.05;;;12.18;;
4857;SDS011;58975;51.978;8.472;2024-02-16T23:01:57;22.20;;;13.00;;
4857;SDS011;58975;51.978;8.472;2024-02-16T23:06:53;23.50;;;13.43;;
4857;SDS011;58975;51.978;8.472;2024-02-16T23:11:50;22.92;;;12.75;;
4857;SDS011;58975;51.978;8.472;2024-02-16T23:16:48;24.87;;;13.40;;
4857;SDS011;58975;51.978;8.472;2024-02-16T23:21:45;22.65;;;13.18;;
4857;SDS011;58975;51.978;8.472;2024-02-16T23:26:42;24.48;;;11.90;;
4857;SDS011;58975;51.978;8.472;2024-02-16T23:31:38;29.13;;;14.65;;
4857;SDS011;58975;51.978;8.472;2024-02-16T23:36:35;22.75;;;12.57;;
4857;SDS011;58975;51.978;8.472;2024-02-16T23:41:32;27.00;;;15.05;;
4857;SDS011;58975;51.978;8.472;2024-02-16T23:46:28;25.50;;;13.57;;
4857;SDS011;58975;51.978;8.472;2024-02-16T23:51:25;29.20;;;15.80;;
4857;SDS011;58975;51.978;8.472;2024-02-16T23:56:21;29.42;;;14.45;;
